Oats, South Carolina
Current Conditions -  °F | °C
As of 5:53 AM on Saturday 22 Nov 2014 (Local Time) from KFLO Reporting Station
Clear Clear  
Wind Chill: 24°   Ceiling: Unl
Heat Index: 29°   Visibility: 10mi
Dew Point: 16°   Wind: 5mph
Humidity: 58%   Direction: 50°NE
Pressure: 30.54"   Gusts: NA
Location:  34.1883°N, 80.0384°W
Report Text: KFLO 221053Z AUTO 05004KT 10SM CLR M02/M09 A3054 RMK AO2 SLP341 T10171089
Loading
Personal Weather Stations






























Interactive Weather Map New forecast layout! Learn more

10-Day Weather Forecast

Advertisements
Track Severe Weather on mobile